SKL3 NZNS-NZWF
Flight info
| Callsign | SKL3 |
|---|---|
| Flight time | 0h 54m |
| Altitude | 43000 |
| Route | NESTA Q787 MAMUS Y886 ELRUV |
| Aircraft | C25C/M-SDE2E3FGHRWXY/LB1 |
Departure
| Time | 2026-04-22 02:24 |
|---|---|
| Airport | Nelson Airport (NZNS) |
Arrival
| Time | 2026-04-22 03:19 |
|---|---|
| Airport | Wanaka Airport (NZWF) |
| Time | Latitude | Longitude | Altitude | Speed | Heading |
|---|---|---|---|---|---|
| 2026-04-22 02:02 | -41.29941 | 173.22424 | 53 ft | 0 kts | 136° |
| 2026-04-22 02:21 | -41.29940 | 173.22429 | 56 ft | 1 kts | 62° |
| 2026-04-22 02:22 | -41.29932 | 173.22426 | 54 ft | 4 kts | 295° |
| 2026-04-22 02:22 | -41.29912 | 173.22380 | 53 ft | 4 kts | 300° |
| 2026-04-22 02:22 | -41.29957 | 173.22307 | 55 ft | 15 kts | 221° |
| 2026-04-22 02:22 | -41.30042 | 173.22207 | 55 ft | 17 kts | 219° |
| 2026-04-22 02:23 | -41.30128 | 173.22113 | 53 ft | 12 kts | 222° |
| 2026-04-22 02:23 | -41.30179 | 173.22052 | 53 ft | 5 kts | 212° |
| 2026-04-22 02:23 | -41.30191 | 173.22032 | 52 ft | 0 kts | 244° |
| 2026-04-22 02:23 | -41.30193 | 173.22009 | 52 ft | 6 kts | 278° |
| 2026-04-22 02:24 | -41.30141 | 173.21919 | 53 ft | 12 kts | 321° |
| 2026-04-22 02:24 | -41.30050 | 173.21994 | 52 ft | 43 kts | 40° |
| 2026-04-22 02:24 | -41.29532 | 173.22592 | 82 ft | 148 kts | 41° |
| 2026-04-22 02:24 | -41.28680 | 173.23493 | 981 ft | 171 kts | 31° |
| 2026-04-22 02:25 | -41.27418 | 173.24083 | 2128 ft | 214 kts | 8° |
| 2026-04-22 02:25 | -41.25888 | 173.23664 | 3616 ft | 243 kts | 330° |
| 2026-04-22 02:25 | -41.24717 | 173.21980 | 5146 ft | 270 kts | 298° |
| 2026-04-22 02:25 | -41.24022 | 173.19562 | 5069 ft | 270 kts | 281° |
| 2026-04-22 02:26 | -41.23604 | 173.17258 | 5030 ft | 251 kts | 284° |
| 2026-04-22 02:26 | -41.23097 | 173.15077 | 5026 ft | 248 kts | 285° |
| 2026-04-22 02:26 | -41.22618 | 173.12865 | 5011 ft | 249 kts | 276° |
| 2026-04-22 02:26 | -41.22568 | 173.10565 | 5015 ft | 249 kts | 268° |
| 2026-04-22 02:27 | -41.22528 | 173.08249 | 5019 ft | 251 kts | 269° |
| 2026-04-22 02:27 | -41.22493 | 173.05946 | 5019 ft | 254 kts | 269° |
| 2026-04-22 02:27 | -41.22448 | 173.03580 | 5017 ft | 257 kts | 269° |
| 2026-04-22 02:27 | -41.22451 | 173.01206 | 5015 ft | 256 kts | 262° |
| 2026-04-22 02:28 | -41.23122 | 172.99069 | 5073 ft | 253 kts | 232° |
| 2026-04-22 02:28 | -41.24339 | 172.97388 | 5898 ft | 252 kts | 210° |
| 2026-04-22 02:28 | -41.25964 | 172.96746 | 7952 ft | 244 kts | 193° |
| 2026-04-22 02:28 | -41.27606 | 172.95946 | 9777 ft | 257 kts | 197° |
| 2026-04-22 02:29 | -41.29286 | 172.95109 | 11440 ft | 263 kts | 195° |
| 2026-04-22 02:29 | -41.31034 | 172.94279 | 13091 ft | 270 kts | 197° |
| 2026-04-22 02:29 | -41.32831 | 172.93448 | 14645 ft | 276 kts | 198° |
| 2026-04-22 02:29 | -41.34656 | 172.92582 | 16163 ft | 279 kts | 199° |
| 2026-04-22 02:30 | -41.36502 | 172.91716 | 17686 ft | 283 kts | 200° |
| 2026-04-22 02:30 | -41.38370 | 172.90831 | 19076 ft | 287 kts | 200° |
| 2026-04-22 02:30 | -41.40278 | 172.89932 | 20204 ft | 296 kts | 201° |
| 2026-04-22 02:30 | -41.42247 | 172.88999 | 21278 ft | 304 kts | 201° |
| 2026-04-22 02:31 | -41.44272 | 172.88041 | 22351 ft | 313 kts | 201° |
| 2026-04-22 02:31 | -41.46347 | 172.87062 | 23405 ft | 320 kts | 201° |
| 2026-04-22 02:31 | -41.48470 | 172.86055 | 24337 ft | 327 kts | 201° |
| 2026-04-22 02:31 | -41.50629 | 172.85034 | 25229 ft | 331 kts | 201° |
| 2026-04-22 02:32 | -41.52818 | 172.83996 | 26083 ft | 336 kts | 202° |
| 2026-04-22 02:32 | -41.55040 | 172.82939 | 26896 ft | 341 kts | 202° |
| 2026-04-22 02:32 | -41.57267 | 172.81886 | 27680 ft | 346 kts | 202° |
| 2026-04-22 02:32 | -41.59555 | 172.80796 | 28442 ft | 352 kts | 202° |
| 2026-04-22 02:33 | -41.61878 | 172.79694 | 29176 ft | 357 kts | 202° |
| 2026-04-22 02:33 | -41.64270 | 172.78552 | 29885 ft | 363 kts | 202° |
| 2026-04-22 02:33 | -41.66619 | 172.77437 | 30722 ft | 360 kts | 202° |
| 2026-04-22 02:33 | -41.68974 | 172.76317 | 31505 ft | 358 kts | 202° |
| 2026-04-22 02:34 | -41.71321 | 172.75194 | 32219 ft | 357 kts | 202° |
| 2026-04-22 02:34 | -41.73662 | 172.74079 | 32932 ft | 356 kts | 202° |
| 2026-04-22 02:34 | -41.75993 | 172.72963 | 33627 ft | 355 kts | 202° |
| 2026-04-22 02:34 | -41.78313 | 172.71855 | 34301 ft | 353 kts | 202° |
| 2026-04-22 02:35 | -41.80629 | 172.70748 | 34851 ft | 353 kts | 202° |
| 2026-04-22 02:35 | -41.82905 | 172.69537 | 35389 ft | 351 kts | 207° |
| 2026-04-22 02:35 | -41.85018 | 172.67923 | 35921 ft | 349 kts | 215° |
| 2026-04-22 02:35 | -41.86970 | 172.65990 | 36439 ft | 349 kts | 217° |
| 2026-04-22 02:36 | -41.88896 | 172.64065 | 36934 ft | 349 kts | 217° |
| 2026-04-22 02:36 | -41.90850 | 172.62114 | 37423 ft | 350 kts | 216° |
| 2026-04-22 02:36 | -41.92800 | 172.60159 | 37923 ft | 350 kts | 216° |
| 2026-04-22 02:36 | -41.94754 | 172.58193 | 38416 ft | 351 kts | 216° |
| 2026-04-22 02:37 | -41.96711 | 172.56223 | 38912 ft | 351 kts | 216° |
| 2026-04-22 02:37 | -41.98670 | 172.54255 | 39308 ft | 351 kts | 216° |
| 2026-04-22 02:37 | -42.00627 | 172.52285 | 39707 ft | 351 kts | 216° |
| 2026-04-22 02:37 | -42.02584 | 172.50313 | 40099 ft | 351 kts | 216° |
| 2026-04-22 02:38 | -42.04517 | 172.48364 | 40495 ft | 351 kts | 216° |
| 2026-04-22 02:38 | -42.06473 | 172.46389 | 40891 ft | 351 kts | 216° |
| 2026-04-22 02:38 | -42.08430 | 172.44413 | 41277 ft | 352 kts | 216° |
| 2026-04-22 02:38 | -42.10390 | 172.42433 | 41671 ft | 352 kts | 216° |
| 2026-04-22 02:39 | -42.12354 | 172.40446 | 42043 ft | 353 kts | 216° |
| 2026-04-22 02:39 | -42.14323 | 172.38452 | 42417 ft | 354 kts | 216° |
| 2026-04-22 02:39 | -42.16270 | 172.36479 | 42779 ft | 355 kts | 216° |
| 2026-04-22 02:39 | -42.18248 | 172.34475 | 43119 ft | 356 kts | 216° |
| 2026-04-22 02:40 | -42.19577 | 172.33128 | 43205 ft | 361 kts | 216° |
| 2026-04-22 02:40 | -42.23698 | 172.28941 | 43260 ft | 380 kts | 217° |
| 2026-04-22 02:41 | -42.28016 | 172.24546 | 43268 ft | 397 kts | 216° |
| 2026-04-22 02:41 | -42.32504 | 172.19975 | 43273 ft | 410 kts | 216° |
| 2026-04-22 02:42 | -42.37124 | 172.15254 | 43276 ft | 419 kts | 216° |
| 2026-04-22 02:42 | -42.41794 | 172.10476 | 43269 ft | 422 kts | 216° |
| 2026-04-22 02:43 | -42.46495 | 172.05657 | 43273 ft | 425 kts | 216° |
| 2026-04-22 02:43 | -42.51216 | 172.00809 | 43275 ft | 427 kts | 216° |
| 2026-04-22 02:44 | -42.55952 | 171.95935 | 43278 ft | 428 kts | 216° |
| 2026-04-22 02:44 | -42.60705 | 171.91034 | 43280 ft | 430 kts | 216° |
| 2026-04-22 02:45 | -42.65467 | 171.86114 | 43280 ft | 430 kts | 216° |
| 2026-04-22 02:45 | -42.70231 | 171.81182 | 43285 ft | 431 kts | 216° |
| 2026-04-22 02:46 | -42.75010 | 171.76225 | 43290 ft | 432 kts | 216° |
| 2026-04-22 02:46 | -42.79796 | 171.71252 | 43295 ft | 432 kts | 216° |
| 2026-04-22 02:47 | -42.84540 | 171.66312 | 43296 ft | 432 kts | 216° |
| 2026-04-22 02:47 | -42.89321 | 171.61322 | 43304 ft | 432 kts | 216° |
| 2026-04-22 02:48 | -42.94109 | 171.56316 | 43303 ft | 432 kts | 216° |
| 2026-04-22 02:48 | -42.98882 | 171.51316 | 43308 ft | 432 kts | 216° |
| 2026-04-22 02:49 | -43.03616 | 171.46345 | 43309 ft | 432 kts | 216° |
| 2026-04-22 02:49 | -43.08393 | 171.41317 | 43316 ft | 432 kts | 216° |
| 2026-04-22 02:50 | -43.13163 | 171.36287 | 43322 ft | 433 kts | 216° |
| 2026-04-22 02:50 | -43.17933 | 171.31249 | 43325 ft | 433 kts | 216° |
| 2026-04-22 02:51 | -43.22699 | 171.26204 | 43329 ft | 433 kts | 216° |
| 2026-04-22 02:51 | -43.27436 | 171.21180 | 43332 ft | 433 kts | 216° |
| 2026-04-22 02:52 | -43.32213 | 171.16105 | 43059 ft | 439 kts | 216° |
| 2026-04-22 02:52 | -43.34631 | 171.13526 | 42492 ft | 435 kts | 216° |
| 2026-04-22 02:52 | -43.36991 | 171.11009 | 41922 ft | 423 kts | 216° |
| 2026-04-22 02:52 | -43.39287 | 171.08561 | 41375 ft | 412 kts | 216° |
| 2026-04-22 02:53 | -43.41530 | 171.06167 | 40839 ft | 403 kts | 216° |
| 2026-04-22 02:53 | -43.43722 | 171.03825 | 40317 ft | 395 kts | 215° |
| 2026-04-22 02:53 | -43.45869 | 171.01528 | 39805 ft | 387 kts | 215° |
| 2026-04-22 02:53 | -43.47979 | 170.99265 | 39305 ft | 381 kts | 214° |
| 2026-04-22 02:54 | -43.50098 | 170.97003 | 38752 ft | 388 kts | 214° |
| 2026-04-22 02:54 | -43.52218 | 170.94727 | 38229 ft | 393 kts | 214° |
| 2026-04-22 02:54 | -43.54386 | 170.92398 | 37706 ft | 397 kts | 213° |
| 2026-04-22 02:54 | -43.56575 | 170.90044 | 37181 ft | 400 kts | 213° |
| 2026-04-22 02:55 | -43.58781 | 170.87671 | 36650 ft | 402 kts | 212° |
| 2026-04-22 02:55 | -43.60974 | 170.85308 | 36126 ft | 393 kts | 212° |
| 2026-04-22 02:55 | -43.63086 | 170.83020 | 35611 ft | 379 kts | 211° |
| 2026-04-22 02:55 | -43.65127 | 170.80814 | 35118 ft | 365 kts | 210° |
| 2026-04-22 02:56 | -43.67096 | 170.78697 | 34643 ft | 353 kts | 209° |
| 2026-04-22 02:56 | -43.69002 | 170.76637 | 34159 ft | 346 kts | 208° |
| 2026-04-22 02:56 | -43.70915 | 170.74579 | 33687 ft | 351 kts | 208° |
| 2026-04-22 02:56 | -43.72852 | 170.72492 | 33223 ft | 355 kts | 208° |
| 2026-04-22 02:57 | -43.74805 | 170.70369 | 32759 ft | 359 kts | 209° |
| 2026-04-22 02:57 | -43.76782 | 170.68224 | 32280 ft | 362 kts | 208° |
| 2026-04-22 02:57 | -43.78774 | 170.66059 | 31799 ft | 365 kts | 208° |
| 2026-04-22 02:57 | -43.80779 | 170.63888 | 31318 ft | 368 kts | 208° |
| 2026-04-22 02:58 | -43.82838 | 170.61654 | 30823 ft | 385 kts | 208° |
| 2026-04-22 02:58 | -43.84981 | 170.59342 | 30295 ft | 406 kts | 209° |
| 2026-04-22 02:58 | -43.87251 | 170.56859 | 29726 ft | 423 kts | 210° |
| 2026-04-22 02:58 | -43.89584 | 170.54302 | 29165 ft | 424 kts | 210° |
| 2026-04-22 02:59 | -43.91878 | 170.51772 | 28602 ft | 421 kts | 210° |
| 2026-04-22 02:59 | -43.94184 | 170.49269 | 28049 ft | 421 kts | 210° |
| 2026-04-22 02:59 | -43.96493 | 170.46757 | 27494 ft | 422 kts | 210° |
| 2026-04-22 02:59 | -43.98803 | 170.44224 | 26932 ft | 424 kts | 211° |
| 2026-04-22 03:00 | -44.01058 | 170.41732 | 26384 ft | 402 kts | 210° |
| 2026-04-22 03:00 | -44.03187 | 170.39380 | 25868 ft | 385 kts | 210° |
| 2026-04-22 03:00 | -44.05289 | 170.37101 | 25365 ft | 381 kts | 210° |
| 2026-04-22 03:00 | -44.07364 | 170.34829 | 24864 ft | 378 kts | 210° |
| 2026-04-22 03:01 | -44.09423 | 170.32563 | 24370 ft | 376 kts | 210° |
| 2026-04-22 03:01 | -44.11465 | 170.30305 | 23857 ft | 374 kts | 211° |
| 2026-04-22 03:01 | -44.13505 | 170.28073 | 23334 ft | 371 kts | 210° |
| 2026-04-22 03:01 | -44.15626 | 170.26101 | 22847 ft | 365 kts | 206° |
| 2026-04-22 03:02 | -44.17721 | 170.24194 | 22372 ft | 363 kts | 206° |
| 2026-04-22 03:02 | -44.19824 | 170.22246 | 21890 ft | 363 kts | 207° |
| 2026-04-22 03:02 | -44.21922 | 170.20300 | 21413 ft | 362 kts | 207° |
| 2026-04-22 03:02 | -44.24026 | 170.18359 | 20934 ft | 361 kts | 207° |
| 2026-04-22 03:03 | -44.26118 | 170.16426 | 20457 ft | 360 kts | 207° |
| 2026-04-22 03:03 | -44.28206 | 170.14496 | 19983 ft | 360 kts | 207° |
| 2026-04-22 03:03 | -44.30291 | 170.12564 | 19507 ft | 359 kts | 207° |
| 2026-04-22 03:03 | -44.32368 | 170.10638 | 19025 ft | 358 kts | 207° |
| 2026-04-22 03:04 | -44.34439 | 170.08719 | 18548 ft | 356 kts | 208° |
| 2026-04-22 03:04 | -44.36493 | 170.06809 | 18060 ft | 353 kts | 208° |
| 2026-04-22 03:04 | -44.38527 | 170.04916 | 17591 ft | 350 kts | 208° |
| 2026-04-22 03:04 | -44.40549 | 170.03042 | 17131 ft | 347 kts | 208° |
| 2026-04-22 03:05 | -44.42555 | 170.01168 | 16675 ft | 346 kts | 208° |
| 2026-04-22 03:05 | -44.44552 | 169.99311 | 16220 ft | 345 kts | 208° |
| 2026-04-22 03:05 | -44.46548 | 169.97452 | 15764 ft | 344 kts | 208° |
| 2026-04-22 03:05 | -44.48540 | 169.95596 | 15158 ft | 343 kts | 208° |
| 2026-04-22 03:06 | -44.50439 | 169.93813 | 14546 ft | 321 kts | 208° |
| 2026-04-22 03:06 | -44.52235 | 169.92123 | 14112 ft | 306 kts | 208° |
| 2026-04-22 03:06 | -44.54000 | 169.90488 | 13690 ft | 302 kts | 208° |
| 2026-04-22 03:06 | -44.55739 | 169.88862 | 13294 ft | 298 kts | 208° |
| 2026-04-22 03:07 | -44.57456 | 169.87255 | 12899 ft | 296 kts | 208° |
| 2026-04-22 03:07 | -44.59161 | 169.85651 | 12510 ft | 294 kts | 208° |
| 2026-04-22 03:07 | -44.60861 | 169.84062 | 12125 ft | 293 kts | 208° |
| 2026-04-22 03:07 | -44.62431 | 169.82216 | 11738 ft | 299 kts | 223° |
| 2026-04-22 03:08 | -44.63808 | 169.80034 | 11347 ft | 298 kts | 221° |
| 2026-04-22 03:08 | -44.65236 | 169.77920 | 10958 ft | 298 kts | 222° |
| 2026-04-22 03:08 | -44.66649 | 169.75772 | 10559 ft | 300 kts | 222° |
| 2026-04-22 03:08 | -44.68069 | 169.73610 | 10153 ft | 301 kts | 223° |
| 2026-04-22 03:09 | -44.69484 | 169.71453 | 9744 ft | 299 kts | 223° |
| 2026-04-22 03:09 | -44.70893 | 169.69299 | 9346 ft | 299 kts | 223° |
| 2026-04-22 03:09 | -44.72299 | 169.67149 | 8952 ft | 298 kts | 223° |
| 2026-04-22 03:09 | -44.73710 | 169.65009 | 8556 ft | 298 kts | 224° |
| 2026-04-22 03:10 | -44.75116 | 169.62856 | 8165 ft | 298 kts | 224° |
| 2026-04-22 03:10 | -44.76515 | 169.60710 | 7763 ft | 290 kts | 224° |
| 2026-04-22 03:10 | -44.77796 | 169.58740 | 7433 ft | 264 kts | 224° |
| 2026-04-22 03:10 | -44.79000 | 169.56899 | 7122 ft | 246 kts | 224° |
| 2026-04-22 03:11 | -44.80125 | 169.55176 | 6821 ft | 233 kts | 224° |
| 2026-04-22 03:11 | -44.81196 | 169.53539 | 6521 ft | 222 kts | 225° |
| 2026-04-22 03:11 | -44.82211 | 169.51971 | 6242 ft | 212 kts | 225° |
| 2026-04-22 03:11 | -44.83186 | 169.50455 | 5976 ft | 205 kts | 226° |
| 2026-04-22 03:12 | -44.84126 | 169.48977 | 5716 ft | 200 kts | 226° |
| 2026-04-22 03:12 | -44.85932 | 169.46114 | 5209 ft | 193 kts | 231° |
| 2026-04-22 03:12 | -44.86392 | 169.44356 | 4949 ft | 195 kts | 264° |
| 2026-04-22 03:13 | -44.86156 | 169.42534 | 4841 ft | 187 kts | 294° |
| 2026-04-22 03:13 | -44.85362 | 169.41134 | 4614 ft | 187 kts | 319° |
| 2026-04-22 03:13 | -44.84385 | 169.39910 | 4353 ft | 189 kts | 317° |
| 2026-04-22 03:13 | -44.83398 | 169.38676 | 4085 ft | 190 kts | 318° |
| 2026-04-22 03:14 | -44.82413 | 169.37437 | 3822 ft | 189 kts | 318° |
| 2026-04-22 03:14 | -44.81432 | 169.36208 | 3565 ft | 188 kts | 317° |
| 2026-04-22 03:14 | -44.80448 | 169.34971 | 3281 ft | 191 kts | 318° |
| 2026-04-22 03:14 | -44.79455 | 169.33721 | 2970 ft | 192 kts | 318° |
| 2026-04-22 03:15 | -44.78459 | 169.32472 | 2683 ft | 192 kts | 317° |
| 2026-04-22 03:15 | -44.77464 | 169.31223 | 2395 ft | 191 kts | 318° |
| 2026-04-22 03:15 | -44.76473 | 169.29982 | 2203 ft | 189 kts | 318° |
| 2026-04-22 03:15 | -44.75539 | 169.28807 | 2155 ft | 166 kts | 318° |
| 2026-04-22 03:16 | -44.74707 | 169.27910 | 2067 ft | 140 kts | 328° |
| 2026-04-22 03:16 | -44.73889 | 169.27288 | 1942 ft | 128 kts | 335° |
| 2026-04-22 03:16 | -44.73092 | 169.26799 | 1865 ft | 127 kts | 339° |
| 2026-04-22 03:16 | -44.72246 | 169.26340 | 1985 ft | 133 kts | 341° |
| 2026-04-22 03:17 | -44.71349 | 169.25952 | 2082 ft | 145 kts | 344° |
| 2026-04-22 03:17 | -44.70379 | 169.25295 | 2174 ft | 151 kts | 328° |
| 2026-04-22 03:17 | -44.69826 | 169.24787 | 2166 ft | 142 kts | 327° |
| 2026-04-22 03:17 | -44.69112 | 169.23932 | 2143 ft | 132 kts | 296° |
| 2026-04-22 03:18 | -44.69130 | 169.22695 | 1921 ft | 136 kts | 243° |
| 2026-04-22 03:18 | -44.69760 | 169.21824 | 1826 ft | 122 kts | 191° |
| 2026-04-22 03:18 | -44.70441 | 169.22369 | 1636 ft | 119 kts | 132° |
| 2026-04-22 03:18 | -44.71052 | 169.23172 | 1522 ft | 119 kts | 140° |
| 2026-04-22 03:19 | -44.71652 | 169.23935 | 1317 ft | 114 kts | 138° |
| 2026-04-22 03:19 | -44.72233 | 169.24667 | 1184 ft | 105 kts | 139° |
| 2026-04-22 03:19 | -44.72565 | 169.25076 | 1172 ft | 18 kts | 151° |
| 2026-04-22 03:19 | -44.72566 | 169.25077 | 1166 ft | 17 kts | 151° |
| 2026-04-22 03:20 | -44.72574 | 169.25095 | 1172 ft | 1 kts | 51° |
| 2026-04-22 03:20 | -44.72531 | 169.25039 | 1169 ft | 15 kts | 316° |
| 2026-04-22 03:20 | -44.72437 | 169.24919 | 1179 ft | 21 kts | 319° |
| 2026-04-22 03:20 | -44.72401 | 169.24855 | 1184 ft | 7 kts | 236° |
| 2026-04-22 03:21 | -44.72456 | 169.24790 | 1180 ft | 7 kts | 172° |
| 2026-04-22 03:21 | -44.72496 | 169.24795 | 1181 ft | 0 kts | 239° |
| 2026-04-22 03:21 | -44.72500 | 169.24782 | 1184 ft | 2 kts | 272° |
| 2026-04-22 03:21 | -44.72482 | 169.24765 | 1181 ft | 3 kts | 24° |
| 2026-04-22 03:22 | -44.72479 | 169.24769 | 1180 ft | 0 kts | 33° |